sensor_id;sensor_type;location;lat;lon;timestamp;pressure;altitude;pressure_sealevel;temperature;humidity
24306;BME280;12423;48.768;8.850;2023-12-29T00:00:03;97029.88;;;8.70;100.00
24306;BME280;12423;48.768;8.850;2023-12-29T00:02:31;97033.16;;;8.74;100.00
24306;BME280;12423;48.768;8.850;2023-12-29T00:04:58;97024.91;;;8.77;100.00
24306;BME280;12423;48.768;8.850;2023-12-29T00:07:26;97026.97;;;8.62;100.00
24306;BME280;12423;48.768;8.850;2023-12-29T00:09:54;97028.78;;;8.73;100.00
24306;BME280;12423;48.768;8.850;2023-12-29T00:12:23;97013.31;;;8.66;100.00
24306;BME280;12423;48.768;8.850;2023-12-29T00:14:50;97016.31;;;8.62;100.00
24306;BME280;12423;48.768;8.850;2023-12-29T00:17:18;97023.72;;;8.58;100.00
24306;BME280;12423;48.768;8.850;2023-12-29T00:19:46;97020.19;;;8.46;100.00
24306;BME280;12423;48.768;8.850;2023-12-29T00:22:14;97018.63;;;8.66;100.00
24306;BME280;12423;48.768;8.850;2023-12-29T00:24:42;97024.19;;;8.63;100.00
24306;BME280;12423;48.768;8.850;2023-12-29T00:27:10;97023.22;;;8.76;100.00
24306;BME280;12423;48.768;8.850;2023-12-29T00:29:39;97013.91;;;8.70;100.00
24306;BME280;12423;48.768;8.850;2023-12-29T00:32:06;97023.72;;;8.58;100.00
24306;BME280;12423;48.768;8.850;2023-12-29T00:34:34;97021.63;;;8.51;100.00
24306;BME280;12423;48.768;8.850;2023-12-29T00:37:03;97021.41;;;8.65;100.00
24306;BME280;12423;48.768;8.850;2023-12-29T00:39:32;97014.25;;;8.54;100.00
24306;BME280;12423;48.768;8.850;2023-12-29T00:42:05;97019.59;;;8.54;100.00
24306;BME280;12423;48.768;8.850;2023-12-29T00:44:34;97025.84;;;8.42;100.00
24306;BME280;12423;48.768;8.850;2023-12-29T00:47:03;97031.22;;;8.53;100.00
24306;BME280;12423;48.768;8.850;2023-12-29T00:49:30;97018.50;;;8.45;100.00
24306;BME280;12423;48.768;8.850;2023-12-29T00:51:58;97020.31;;;8.67;100.00
24306;BME280;12423;48.768;8.850;2023-12-29T00:54:26;97020.06;;;8.59;100.00
24306;BME280;12423;48.768;8.850;2023-12-29T00:56:56;97029.38;;;8.54;100.00
24306;BME280;12423;48.768;8.850;2023-12-29T00:59:23;97032.63;;;8.46;100.00
24306;BME280;12423;48.768;8.850;2023-12-29T01:01:51;97024.19;;;8.52;100.00
24306;BME280;12423;48.768;8.850;2023-12-29T01:04:20;97029.50;;;8.52;100.00
24306;BME280;12423;48.768;8.850;2023-12-29T01:06:48;97031.69;;;8.58;100.00
24306;BME280;12423;48.768;8.850;2023-12-29T01:09:16;97026.19;;;8.37;100.00
24306;BME280;12423;48.768;8.850;2023-12-29T01:11:43;97021.59;;;8.39;100.00
24306;BME280;12423;48.768;8.850;2023-12-29T01:14:11;97020.75;;;8.39;100.00
24306;BME280;12423;48.768;8.850;2023-12-29T01:16:40;97027.25;;;8.35;100.00
24306;BME280;12423;48.768;8.850;2023-12-29T01:19:09;97014.50;;;8.51;100.00
24306;BME280;12423;48.768;8.850;2023-12-29T01:21:38;97019.66;;;8.41;100.00
24306;BME280;12423;48.768;8.850;2023-12-29T01:24:06;97019.44;;;8.44;100.00
24306;BME280;12423;48.768;8.850;2023-12-29T01:26:36;97015.97;;;8.55;100.00
24306;BME280;12423;48.768;8.850;2023-12-29T01:29:04;97016.44;;;8.49;100.00
24306;BME280;12423;48.768;8.850;2023-12-29T01:31:32;97004.09;;;8.59;100.00
24306;BME280;12423;48.768;8.850;2023-12-29T01:34:00;97015.59;;;8.60;100.00
24306;BME280;12423;48.768;8.850;2023-12-29T01:36:28;97010.41;;;8.58;100.00
24306;BME280;12423;48.768;8.850;2023-12-29T01:38:57;97008.31;;;8.51;100.00
24306;BME280;12423;48.768;8.850;2023-12-29T01:41:25;97012.56;;;8.53;100.00
24306;BME280;12423;48.768;8.850;2023-12-29T01:44:21;97004.19;;;8.58;100.00
24306;BME280;12423;48.768;8.850;2023-12-29T01:46:51;97007.72;;;8.58;100.00
24306;BME280;12423;48.768;8.850;2023-12-29T01:49:19;97005.38;;;8.42;100.00
24306;BME280;12423;48.768;8.850;2023-12-29T01:51:49;97009.28;;;8.61;100.00
24306;BME280;12423;48.768;8.850;2023-12-29T01:54:20;97001.91;;;8.64;100.00
24306;BME280;12423;48.768;8.850;2023-12-29T01:56:50;96997.09;;;8.58;100.00
24306;BME280;12423;48.768;8.850;2023-12-29T01:59:19;96994.31;;;8.60;100.00
24306;BME280;12423;48.768;8.850;2023-12-29T02:01:53;97000.81;;;8.56;100.00
24306;BME280;12423;48.768;8.850;2023-12-29T02:04:21;97001.78;;;8.66;100.00
24306;BME280;12423;48.768;8.850;2023-12-29T02:06:51;97000.22;;;8.52;100.00
24306;BME280;12423;48.768;8.850;2023-12-29T02:09:20;97001.94;;;8.53;100.00
24306;BME280;12423;48.768;8.850;2023-12-29T02:11:55;96992.00;;;8.44;100.00
24306;BME280;12423;48.768;8.850;2023-12-29T02:14:25;96991.50;;;8.50;100.00
24306;BME280;12423;48.768;8.850;2023-12-29T02:16:58;96998.41;;;8.53;100.00
24306;BME280;12423;48.768;8.850;2023-12-29T02:19:37;96991.28;;;8.53;100.00
24306;BME280;12423;48.768;8.850;2023-12-29T02:22:07;96987.50;;;8.67;100.00
24306;BME280;12423;48.768;8.850;2023-12-29T02:24:37;96993.69;;;8.67;100.00
24306;BME280;12423;48.768;8.850;2023-12-29T02:27:14;96990.66;;;8.61;100.00
24306;BME280;12423;48.768;8.850;2023-12-29T02:29:56;96993.66;;;8.56;100.00
24306;BME280;12423;48.768;8.850;2023-12-29T02:32:25;96983.25;;;8.64;100.00
24306;BME280;12423;48.768;8.850;2023-12-29T02:34:55;96977.94;;;8.64;100.00
24306;BME280;12423;48.768;8.850;2023-12-29T02:37:24;96978.09;;;8.63;100.00
24306;BME280;12423;48.768;8.850;2023-12-29T02:39:55;96979.66;;;8.65;100.00
24306;BME280;12423;48.768;8.850;2023-12-29T02:42:25;96977.47;;;8.71;100.00
24306;BME280;12423;48.768;8.850;2023-12-29T02:44:53;96969.47;;;8.71;100.00
24306;BME280;12423;48.768;8.850;2023-12-29T02:47:21;96975.91;;;8.68;100.00
24306;BME280;12423;48.768;8.850;2023-12-29T02:49:49;96968.75;;;8.46;100.00
24306;BME280;12423;48.768;8.850;2023-12-29T02:52:17;96976.69;;;8.35;100.00
24306;BME280;12423;48.768;8.850;2023-12-29T02:54:45;96971.63;;;8.32;100.00
24306;BME280;12423;48.768;8.850;2023-12-29T02:57:12;96972.00;;;8.38;100.00
24306;BME280;12423;48.768;8.850;2023-12-29T02:59:41;96966.56;;;8.51;100.00
24306;BME280;12423;48.768;8.850;2023-12-29T03:02:09;96968.75;;;8.46;100.00
24306;BME280;12423;48.768;8.850;2023-12-29T03:04:37;96967.50;;;8.39;100.00
24306;BME280;12423;48.768;8.850;2023-12-29T03:07:04;96959.56;;;8.50;100.00
24306;BME280;12423;48.768;8.850;2023-12-29T03:09:32;96969.47;;;8.37;100.00
24306;BME280;12423;48.768;8.850;2023-12-29T03:12:00;96968.13;;;8.42;100.00
24306;BME280;12423;48.768;8.850;2023-12-29T03:14:28;96967.50;;;8.27;100.00
24306;BME280;12423;48.768;8.850;2023-12-29T03:16:57;96967.50;;;8.39;100.00
24306;BME280;12423;48.768;8.850;2023-12-29T03:19:26;96967.50;;;8.39;100.00
24306;BME280;12423;48.768;8.850;2023-12-29T03:21:57;96968.81;;;8.33;100.00
24306;BME280;12423;48.768;8.850;2023-12-29T03:24:25;96965.22;;;8.34;100.00
24306;BME280;12423;48.768;8.850;2023-12-29T03:26:52;96958.81;;;8.37;100.00
24306;BME280;12423;48.768;8.850;2023-12-29T03:29:20;96959.28;;;8.30;100.00
24306;BME280;12423;48.768;8.850;2023-12-29T03:31:48;96958.81;;;8.37;100.00
24306;BME280;12423;48.768;8.850;2023-12-29T03:34:17;96955.91;;;8.40;100.00
24306;BME280;12423;48.768;8.850;2023-12-29T03:36:47;96950.59;;;8.28;100.00
24306;BME280;12423;48.768;8.850;2023-12-29T03:39:15;96955.66;;;8.32;100.00
24306;BME280;12423;48.768;8.850;2023-12-29T03:41:43;96956.59;;;8.08;100.00
24306;BME280;12423;48.768;8.850;2023-12-29T03:44:11;96946.44;;;8.24;100.00
24306;BME280;12423;48.768;8.850;2023-12-29T03:46:39;96953.00;;;8.20;100.00
24306;BME280;12423;48.768;8.850;2023-12-29T03:49:09;96947.31;;;8.14;100.00
24306;BME280;12423;48.768;8.850;2023-12-29T03:51:38;96944.38;;;8.28;100.00
24306;BME280;12423;48.768;8.850;2023-12-29T03:54:06;96953.59;;;8.24;100.00
24306;BME280;12423;48.768;8.850;2023-12-29T03:56:33;96952.75;;;8.35;100.00
24306;BME280;12423;48.768;8.850;2023-12-29T03:59:01;96954.06;;;8.29;100.00
24306;BME280;12423;48.768;8.850;2023-12-29T04:01:29;96955.78;;;8.30;100.00
24306;BME280;12423;48.768;8.850;2023-12-29T04:03:57;96954.66;;;8.21;100.00
24306;BME280;12423;48.768;8.850;2023-12-29T04:06:24;96942.59;;;8.17;100.00
24306;BME280;12423;48.768;8.850;2023-12-29T04:08:54;96941.84;;;8.26;100.00
24306;BME280;12423;48.768;8.850;2023-12-29T04:11:22;96937.03;;;8.20;100.00
24306;BME280;12423;48.768;8.850;2023-12-29T04:13:49;96936.53;;;8.15;100.00
24306;BME280;12423;48.768;8.850;2023-12-29T04:16:17;96941.84;;;8.26;100.00
24306;BME280;12423;48.768;8.850;2023-12-29T04:18:45;96941.84;;;8.26;100.00
24306;BME280;12423;48.768;8.850;2023-12-29T04:21:14;96939.56;;;8.22;100.00
24306;BME280;12423;48.768;8.850;2023-12-29T04:23:42;96933.75;;;8.28;100.00
24306;BME280;12423;48.768;8.850;2023-12-29T04:26:11;96937.88;;;8.21;100.00
24306;BME280;12423;48.768;8.850;2023-12-29T04:28:38;96933.63;;;8.18;100.00
24306;BME280;12423;48.768;8.850;2023-12-29T04:31:06;96930.22;;;8.05;100.00
24306;BME280;12423;48.768;8.850;2023-12-29T04:33:34;96930.34;;;8.03;100.00
24306;BME280;12423;48.768;8.850;2023-12-29T04:36:02;96935.56;;;8.16;100.00
24306;BME280;12423;48.768;8.850;2023-12-29T04:38:30;96935.09;;;8.22;100.00
24306;BME280;12423;48.768;8.850;2023-12-29T04:40:58;96940.78;;;8.29;100.00
24306;BME280;12423;48.768;8.850;2023-12-29T04:43:27;96935.78;;;8.13;100.00
24306;BME280;12423;48.768;8.850;2023-12-29T04:45:55;96931.69;;;8.20;100.00
24306;BME280;12423;48.768;8.850;2023-12-29T04:48:23;96941.59;;;8.29;100.00
24306;BME280;12423;48.768;8.850;2023-12-29T04:50:51;96933.75;;;8.17;100.00
24306;BME280;12423;48.768;8.850;2023-12-29T04:53:19;96928.28;;;8.18;100.00
24306;BME280;12423;48.768;8.850;2023-12-29T04:55:47;96939.69;;;8.20;100.00
24306;BME280;12423;48.768;8.850;2023-12-29T04:58:14;96942.81;;;8.14;100.00
24306;BME280;12423;48.768;8.850;2023-12-29T05:00:43;96945.38;;;8.16;100.00
24306;BME280;12423;48.768;8.850;2023-12-29T05:03:11;96950.56;;;8.17;100.00
24306;BME280;12423;48.768;8.850;2023-12-29T05:05:39;96946.66;;;8.10;100.00
24306;BME280;12423;48.768;8.850;2023-12-29T05:08:07;96950.09;;;8.12;100.00
24306;BME280;12423;48.768;8.850;2023-12-29T05:10:34;96947.19;;;8.15;100.00
24306;BME280;12423;48.768;8.850;2023-12-29T05:13:03;96944.75;;;8.12;100.00
24306;BME280;12423;48.768;8.850;2023-12-29T05:15:31;96951.28;;;8.19;100.00
24306;BME280;12423;48.768;8.850;2023-12-29T05:18:00;96947.91;;;8.17;100.00
24306;BME280;12423;48.768;8.850;2023-12-29T05:20:28;96945.38;;;8.16;100.00
24306;BME280;12423;48.768;8.850;2023-12-29T05:22:56;96942.22;;;8.22;100.00
24306;BME280;12423;48.768;8.850;2023-12-29T05:25:23;96937.03;;;8.20;100.00
24306;BME280;12423;48.768;8.850;2023-12-29T05:27:51;96945.00;;;8.20;100.00
24306;BME280;12423;48.768;8.850;2023-12-29T05:30:19;96948.13;;;8.14;100.00
24306;BME280;12423;48.768;8.850;2023-12-29T05:32:46;96944.78;;;8.23;100.00
24306;BME280;12423;48.768;8.850;2023-12-29T05:35:15;96945.63;;;8.24;100.00
24306;BME280;12423;48.768;8.850;2023-12-29T05:37:43;96944.28;;;8.07;100.00
24306;BME280;12423;48.768;8.850;2023-12-29T05:40:11;96945.25;;;8.17;100.00
24306;BME280;12423;48.768;8.850;2023-12-29T05:42:39;96940.84;;;8.05;100.00
24306;BME280;12423;48.768;8.850;2023-12-29T05:45:07;96956.84;;;8.16;100.00
24306;BME280;12423;48.768;8.850;2023-12-29T05:47:35;96957.31;;;8.10;100.00
24306;BME280;12423;48.768;8.850;2023-12-29T05:50:03;96960.97;;;8.20;100.00
24306;BME280;12423;48.768;8.850;2023-12-29T05:52:33;96963.28;;;8.14;100.00
24306;BME280;12423;48.768;8.850;2023-12-29T05:55:00;96962.03;;;8.18;100.00
24306;BME280;12423;48.768;8.850;2023-12-29T05:57:28;96962.16;;;8.05;100.00
24306;BME280;12423;48.768;8.850;2023-12-29T05:59:56;96960.97;;;8.09;100.00
24306;BME280;12423;48.768;8.850;2023-12-29T06:02:24;96977.53;;;8.12;100.00
24306;BME280;12423;48.768;8.850;2023-12-29T06:04:52;96973.91;;;8.14;100.00
24306;BME280;12423;48.768;8.850;2023-12-29T06:07:19;96971.25;;;8.14;100.00
24306;BME280;12423;48.768;8.850;2023-12-29T06:09:48;96978.84;;;8.07;100.00
24306;BME280;12423;48.768;8.850;2023-12-29T06:12:16;96977.88;;;8.08;100.00
24306;BME280;12423;48.768;8.850;2023-12-29T06:14:44;96978.00;;;8.06;100.00
24306;BME280;12423;48.768;8.850;2023-12-29T06:17:11;96963.34;;;8.01;100.00
24306;BME280;12423;48.768;8.850;2023-12-29T06:19:39;96969.75;;;7.98;100.00
24306;BME280;12423;48.768;8.850;2023-12-29T06:22:07;96967.81;;;7.89;100.00
24306;BME280;12423;48.768;8.850;2023-12-29T06:24:37;96971.31;;;7.89;100.00
24306;BME280;12423;48.768;8.850;2023-12-29T06:27:07;96970.34;;;7.90;100.00
24306;BME280;12423;48.768;8.850;2023-12-29T06:29:35;96960.94;;;7.98;100.00
24306;BME280;12423;48.768;8.850;2023-12-29T06:32:04;96957.56;;;8.07;100.00
24306;BME280;12423;48.768;8.850;2023-12-29T06:34:31;96959.75;;;8.24;100.00
24306;BME280;12423;48.768;8.850;2023-12-29T06:36:59;96959.53;;;8.27;100.00
24306;BME280;12423;48.768;8.850;2023-12-29T06:39:27;96955.16;;;8.26;100.00
24306;BME280;12423;48.768;8.850;2023-12-29T06:41:55;96950.47;;;8.30;100.00
24306;BME280;12423;48.768;8.850;2023-12-29T06:44:24;96959.53;;;8.27;100.00
24306;BME280;12423;48.768;8.850;2023-12-29T06:46:51;96958.31;;;8.32;100.00
24306;BME280;12423;48.768;8.850;2023-12-29T06:49:19;96961.97;;;8.42;100.00
24306;BME280;12423;48.768;8.850;2023-12-29T06:51:47;96961.81;;;8.32;100.00
24306;BME280;12423;48.768;8.850;2023-12-29T06:54:15;96961.59;;;8.35;100.00
24306;BME280;12423;48.768;8.850;2023-12-29T06:56:43;96960.25;;;8.29;100.00
24306;BME280;12423;48.768;8.850;2023-12-29T06:59:11;96952.38;;;8.28;100.00
24306;BME280;12423;48.768;8.850;2023-12-29T07:01:40;96952.75;;;8.23;100.00
24306;BME280;12423;48.768;8.850;2023-12-29T07:04:08;96951.31;;;8.30;100.00
24306;BME280;12423;48.768;8.850;2023-12-29T07:06:37;96949.25;;;8.34;100.00
24306;BME280;12423;48.768;8.850;2023-12-29T07:09:05;96951.91;;;8.34;100.00
24306;BME280;12423;48.768;8.850;2023-12-29T07:11:34;96943.06;;;8.34;100.00
24306;BME280;12423;48.768;8.850;2023-12-29T07:14:02;96941.38;;;8.33;100.00
24306;BME280;12423;48.768;8.850;2023-12-29T07:16:30;96941.97;;;8.25;100.00
24306;BME280;12423;48.768;8.850;2023-12-29T07:18:59;96940.88;;;8.27;100.00
24306;BME280;12423;48.768;8.850;2023-12-29T07:21:27;96940.91;;;8.39;100.00
24306;BME280;12423;48.768;8.850;2023-12-29T07:23:54;96939.44;;;8.35;100.00
24306;BME280;12423;48.768;8.850;2023-12-29T07:26:22;96949.47;;;8.31;100.00
24306;BME280;12423;48.768;8.850;2023-12-29T07:28:50;96955.03;;;8.28;100.00
24306;BME280;12423;48.768;8.850;2023-12-29T07:31:20;96954.91;;;8.29;100.00
24306;BME280;12423;48.768;8.850;2023-12-29T07:33:49;96945.50;;;8.37;100.00
24306;BME280;12423;48.768;8.850;2023-12-29T07:36:18;96947.53;;;8.33;100.00
24306;BME280;12423;48.768;8.850;2023-12-29T07:38:45;96943.44;;;8.40;100.00
24306;BME280;12423;48.768;8.850;2023-12-29T07:41:13;96945.25;;;8.40;100.00
24306;BME280;12423;48.768;8.850;2023-12-29T07:43:41;96942.38;;;8.43;100.00
24306;BME280;12423;48.768;8.850;2023-12-29T07:46:09;96938.84;;;8.42;100.00
24306;BME280;12423;48.768;8.850;2023-12-29T07:48:36;96945.03;;;8.43;100.00
24306;BME280;12423;48.768;8.850;2023-12-29T07:51:05;96945.78;;;8.45;100.00
24306;BME280;12423;48.768;8.850;2023-12-29T07:53:34;96948.69;;;8.53;100.00
24306;BME280;12423;48.768;8.850;2023-12-29T07:56:02;96954.47;;;8.47;100.00
24306;BME280;12423;48.768;8.850;2023-12-29T07:58:30;96949.41;;;8.66;100.00
24306;BME280;12423;48.768;8.850;2023-12-29T08:00:58;96956.66;;;8.53;100.00
24306;BME280;12423;48.768;8.850;2023-12-29T08:03:26;96959.69;;;8.60;100.00
24306;BME280;12423;48.768;8.850;2023-12-29T08:05:54;96953.25;;;8.62;100.00
24306;BME280;12423;48.768;8.850;2023-12-29T08:08:21;96959.81;;;8.47;100.00
24306;BME280;12423;48.768;8.850;2023-12-29T08:10:50;96955.56;;;8.44;100.00
24306;BME280;12423;48.768;8.850;2023-12-29T08:13:18;96957.25;;;8.45;100.00
24306;BME280;12423;48.768;8.850;2023-12-29T08:15:46;96955.81;;;8.64;100.00
24306;BME280;12423;48.768;8.850;2023-12-29T08:18:14;96969.00;;;8.65;100.00
24306;BME280;12423;48.768;8.850;2023-12-29T08:20:42;96968.41;;;8.62;100.00
24306;BME280;12423;48.768;8.850;2023-12-29T08:23:09;96971.78;;;8.64;100.00
24306;BME280;12423;48.768;8.850;2023-12-29T08:25:37;96968.75;;;8.57;100.00
24306;BME280;12423;48.768;8.850;2023-12-29T08:28:06;96966.22;;;8.67;100.00
24306;BME280;12423;48.768;8.850;2023-12-29T08:30:34;96978.19;;;8.73;100.00
24306;BME280;12423;48.768;8.850;2023-12-29T08:33:02;96985.22;;;8.74;100.00
24306;BME280;12423;48.768;8.850;2023-12-29T08:35:30;96974.69;;;8.72;100.00
24306;BME280;12423;48.768;8.850;2023-12-29T08:37:58;96984.38;;;8.73;100.00
24306;BME280;12423;48.768;8.850;2023-12-29T08:40:26;96981.81;;;8.72;100.00
24306;BME280;12423;48.768;8.850;2023-12-29T08:42:53;96979.66;;;8.77;100.00
24306;BME280;12423;48.768;8.850;2023-12-29T08:45:23;96984.00;;;8.78;100.00
24306;BME280;12423;48.768;8.850;2023-12-29T08:47:50;96984.84;;;8.78;100.00
24306;BME280;12423;48.768;8.850;2023-12-29T08:50:18;96973.34;;;8.78;100.00
24306;BME280;12423;48.768;8.850;2023-12-29T08:52:46;96969.81;;;8.77;100.00
24306;BME280;12423;48.768;8.850;2023-12-29T08:55:13;96976.16;;;8.76;100.00
24306;BME280;12423;48.768;8.850;2023-12-29T08:57:41;96975.16;;;8.77;100.00
24306;BME280;12423;48.768;8.850;2023-12-29T09:00:10;96980.38;;;8.79;100.00
24306;BME280;12423;48.768;8.850;2023-12-29T09:02:39;96982.78;;;8.82;100.00
24306;BME280;12423;48.768;8.850;2023-12-29T09:05:07;96976.50;;;8.83;100.00
24306;BME280;12423;48.768;8.850;2023-12-29T09:07:35;96971.75;;;8.87;100.00
24306;BME280;12423;48.768;8.850;2023-12-29T09:10:04;96976.84;;;8.78;100.00
24306;BME280;12423;48.768;8.850;2023-12-29T09:12:34;96974.31;;;8.88;100.00
24306;BME280;12423;48.768;8.850;2023-12-29T09:15:03;96980.38;;;8.79;100.00
24306;BME280;12423;48.768;8.850;2023-12-29T09:17:31;96986.41;;;8.92;100.00
24306;BME280;12423;48.768;8.850;2023-12-29T09:20:00;96986.41;;;8.92;100.00
24306;BME280;12423;48.768;8.850;2023-12-29T09:22:36;96993.44;;;8.82;100.00
24306;BME280;12423;48.768;8.850;2023-12-29T09:25:04;96997.06;;;8.81;100.00
24306;BME280;12423;48.768;8.850;2023-12-29T09:27:32;96990.66;;;8.95;100.00
24306;BME280;12423;48.768;8.850;2023-12-29T09:30:00;96996.81;;;8.95;100.00
24306;BME280;12423;48.768;8.850;2023-12-29T09:32:28;96993.78;;;8.89;100.00
24306;BME280;12423;48.768;8.850;2023-12-29T09:34:55;96998.53;;;8.74;100.00
24306;BME280;12423;48.768;8.850;2023-12-29T09:37:24;97003.25;;;8.81;100.00
24306;BME280;12423;48.768;8.850;2023-12-29T09:39:52;97007.00;;;8.79;100.00
24306;BME280;12423;48.768;8.850;2023-12-29T09:42:21;97011.13;;;8.83;100.00
24306;BME280;12423;48.768;8.850;2023-12-29T09:44:50;97014.75;;;8.82;100.00
24306;BME280;12423;48.768;8.850;2023-12-29T09:47:22;97016.81;;;8.90;100.00
24306;BME280;12423;48.768;8.850;2023-12-29T09:49:51;97006.38;;;8.98;100.00
24306;BME280;12423;48.768;8.850;2023-12-29T09:52:20;97004.56;;;9.10;100.00
24306;BME280;12423;48.768;8.850;2023-12-29T09:54:51;97008.19;;;9.09;100.00
24306;BME280;12423;48.768;8.850;2023-12-29T09:57:19;97010.47;;;9.02;100.00
24306;BME280;12423;48.768;8.850;2023-12-29T09:59:48;97003.06;;;9.17;100.00
24306;BME280;12423;48.768;8.850;2023-12-29T10:02:20;96998.06;;;9.35;100.00
24306;BME280;12423;48.768;8.850;2023-12-29T10:04:49;96994.78;;;9.43;100.00
24306;BME280;12423;48.768;8.850;2023-12-29T10:07:21;96993.50;;;9.58;100.00
24306;BME280;12423;48.768;8.850;2023-12-29T10:09:55;96991.19;;;9.32;100.00
24306;BME280;12423;48.768;8.850;2023-12-29T10:12:27;96988.25;;;9.35;100.00
24306;BME280;12423;48.768;8.850;2023-12-29T10:15:04;96981.00;;;9.37;100.00
24306;BME280;12423;48.768;8.850;2023-12-29T10:17:44;96982.44;;;9.30;100.00
24306;BME280;12423;48.768;8.850;2023-12-29T10:20:22;96974.19;;;9.33;100.00
24306;BME280;12423;48.768;8.850;2023-12-29T10:23:04;96970.69;;;9.33;100.00
24306;BME280;12423;48.768;8.850;2023-12-29T10:25:34;96970.09;;;9.29;100.00
24306;BME280;12423;48.768;8.850;2023-12-29T10:28:02;96963.63;;;9.43;100.00
24306;BME280;12423;48.768;8.850;2023-12-29T10:30:30;96956.75;;;9.40;100.00
24306;BME280;12423;48.768;8.850;2023-12-29T10:33:01;96948.97;;;9.49;100.00
24306;BME280;12423;48.768;8.850;2023-12-29T10:35:31;96948.28;;;9.56;100.00
24306;BME280;12423;48.768;8.850;2023-12-29T10:38:11;96944.22;;;9.73;100.00
24306;BME280;12423;48.768;8.850;2023-12-29T10:40:41;96943.88;;;9.67;100.00
24306;BME280;12423;48.768;8.850;2023-12-29T10:43:10;96945.00;;;9.64;100.00
24306;BME280;12423;48.768;8.850;2023-12-29T10:45:38;96949.50;;;9.64;100.00
24306;BME280;12423;48.768;8.850;2023-12-29T10:48:06;96932.38;;;9.66;100.00
24306;BME280;12423;48.768;8.850;2023-12-29T10:50:42;96939.81;;;9.84;100.00
24306;BME280;12423;48.768;8.850;2023-12-29T10:53:11;96935.25;;;9.74;100.00
24306;BME280;12423;48.768;8.850;2023-12-29T10:55:40;96930.56;;;9.88;100.00
24306;BME280;12423;48.768;8.850;2023-12-29T10:58:08;96926.91;;;9.89;100.00
24306;BME280;12423;48.768;8.850;2023-12-29T11:00:36;96921.06;;;9.95;100.00
24306;BME280;12423;48.768;8.850;2023-12-29T11:03:04;96918.59;;;10.03;100.00
24306;BME280;12423;48.768;8.850;2023-12-29T11:05:33;96916.63;;;10.05;100.00
24306;BME280;12423;48.768;8.850;2023-12-29T11:08:01;96914.09;;;10.04;100.00
24306;BME280;12423;48.768;8.850;2023-12-29T11:10:43;96902.84;;;10.00;100.00
24306;BME280;12423;48.768;8.850;2023-12-29T11:13:11;96896.94;;;9.96;100.00
24306;BME280;12423;48.768;8.850;2023-12-29T11:15:44;96904.81;;;10.08;100.00
24306;BME280;12423;48.768;8.850;2023-12-29T11:18:13;96899.84;;;10.24;100.00
24306;BME280;12423;48.768;8.850;2023-12-29T11:20:43;96898.56;;;10.19;100.00
24306;BME280;12423;48.768;8.850;2023-12-29T11:23:11;96904.47;;;10.43;100.00
24306;BME280;12423;48.768;8.850;2023-12-29T11:25:40;96909.94;;;10.42;100.00
24306;BME280;12423;48.768;8.850;2023-12-29T11:28:10;96893.09;;;10.41;100.00
24306;BME280;12423;48.768;8.850;2023-12-29T11:30:38;96892.41;;;10.49;100.00
24306;BME280;12423;48.768;8.850;2023-12-29T11:33:10;96896.06;;;10.48;100.00
24306;BME280;12423;48.768;8.850;2023-12-29T11:35:44;96900.22;;;10.41;100.00
24306;BME280;12423;48.768;8.850;2023-12-29T11:38:24;96900.84;;;10.54;100.00
24306;BME280;12423;48.768;8.850;2023-12-29T11:40:59;96901.59;;;10.66;100.00
24306;BME280;12423;48.768;8.850;2023-12-29T11:43:31;96896.22;;;10.56;100.00
24306;BME280;12423;48.768;8.850;2023-12-29T11:45:59;96892.06;;;10.73;100.00
24306;BME280;12423;48.768;8.850;2023-12-29T11:48:54;96897.03;;;10.87;100.00
24306;BME280;12423;48.768;8.850;2023-12-29T11:51:29;96893.06;;;10.92;100.00
24306;BME280;12423;48.768;8.850;2023-12-29T11:53:57;96886.22;;;10.99;100.00
24306;BME280;12423;48.768;8.850;2023-12-29T11:56:30;96892.94;;;10.93;100.00
24306;BME280;12423;48.768;8.850;2023-12-29T11:59:17;96883.53;;;11.18;100.00
24306;BME280;12423;48.768;8.850;2023-12-29T12:01:49;96866.25;;;11.52;100.00
24306;BME280;12423;48.768;8.850;2023-12-29T12:04:38;96870.31;;;11.27;100.00
24306;BME280;12423;48.768;8.850;2023-12-29T12:07:11;96866.63;;;11.76;100.00
24306;BME280;12423;48.768;8.850;2023-12-29T12:09:40;96851.91;;;12.10;100.00
24306;BME280;12423;48.768;8.850;2023-12-29T12:12:08;96842.44;;;13.17;100.00
24306;BME280;12423;48.768;8.850;2023-12-29T12:14:50;96836.97;;;12.72;100.00
24306;BME280;12423;48.768;8.850;2023-12-29T12:17:31;96838.94;;;12.15;100.00
24306;BME280;12423;48.768;8.850;2023-12-29T12:20:03;96841.81;;;11.84;100.00
24306;BME280;12423;48.768;8.850;2023-12-29T12:22:31;96836.50;;;11.65;100.00
24306;BME280;12423;48.768;8.850;2023-12-29T12:25:04;96830.81;;;11.87;100.00
24306;BME280;12423;48.768;8.850;2023-12-29T12:27:34;96811.72;;;12.47;100.00
24306;BME280;12423;48.768;8.850;2023-12-29T12:30:07;96832.13;;;12.76;100.00
24306;BME280;12423;48.768;8.850;2023-12-29T12:32:37;96833.94;;;11.92;100.00
24306;BME280;12423;48.768;8.850;2023-12-29T12:35:13;96844.66;;;11.73;100.00
24306;BME280;12423;48.768;8.850;2023-12-29T12:37:44;96844.66;;;11.73;100.00
24306;BME280;12423;48.768;8.850;2023-12-29T12:40:24;96837.97;;;14.83;98.25
24306;BME280;12423;48.768;8.850;2023-12-29T12:42:52;96830.81;;;15.41;89.65
24306;BME280;12423;48.768;8.850;2023-12-29T12:45:21;96832.06;;;14.71;92.04
24306;BME280;12423;48.768;8.850;2023-12-29T12:47:52;96827.63;;;15.21;86.88
24306;BME280;12423;48.768;8.850;2023-12-29T12:50:20;96830.03;;;17.40;78.59
24306;BME280;12423;48.768;8.850;2023-12-29T12:52:48;96832.69;;;14.65;82.87
24306;BME280;12423;48.768;8.850;2023-12-29T12:55:16;96835.06;;;13.73;88.02
24306;BME280;12423;48.768;8.850;2023-12-29T12:57:45;96832.53;;;12.99;93.37
24306;BME280;12423;48.768;8.850;2023-12-29T13:00:13;96837.94;;;14.40;88.59
24306;BME280;12423;48.768;8.850;2023-12-29T13:02:45;96834.47;;;14.90;84.62
24306;BME280;12423;48.768;8.850;2023-12-29T13:05:15;96854.56;;;13.39;91.02
24306;BME280;12423;48.768;8.850;2023-12-29T13:07:44;96840.03;;;12.50;96.46
24306;BME280;12423;48.768;8.850;2023-12-29T13:10:12;96848.19;;;11.93;100.00